createdAt,value
2022-10-11T00:01:15.629Z,4.03
2022-10-11T00:03:45.436Z,7.53
2022-10-11T00:06:15.262Z,7.13
2022-10-11T00:08:45.151Z,3.90
2022-10-11T00:11:15.011Z,5.67
2022-10-11T00:13:47.726Z,4.03
2022-10-11T00:16:20.023Z,5.53
2022-10-11T00:18:52.736Z,5.30
2022-10-11T00:21:25.509Z,6.33
2022-10-11T00:23:55.503Z,7.43
2022-10-11T00:26:30.160Z,4.27
2022-10-11T00:29:02.670Z,6.63
2022-10-11T00:31:35.823Z,5.27
2022-10-11T00:34:08.412Z,4.17
2022-10-11T00:36:38.320Z,3.60
2022-10-11T00:39:08.774Z,3.73
2022-10-11T00:41:39.000Z,10.00
2022-10-11T00:44:23.278Z,7.37
2022-10-11T00:46:56.347Z,4.90
2022-10-11T00:49:35.611Z,7.27
2022-10-11T00:52:09.996Z,7.10
2022-10-11T00:54:44.604Z,6.13
2022-10-11T00:57:19.000Z,8.20
2022-10-11T00:59:55.171Z,8.03
2022-10-11T01:02:26.553Z,8.53
2022-10-11T01:05:18.031Z,6.80
2022-10-11T01:07:48.302Z,7.80
2022-10-11T01:10:18.369Z,7.07
2022-10-11T01:13:04.573Z,4.83
2022-10-11T01:15:43.208Z,8.87
2022-10-11T01:18:18.053Z,5.23
2022-10-11T01:20:58.189Z,5.50
2022-10-11T01:23:54.411Z,7.97
2022-10-11T01:27:08.716Z,7.50
2022-10-11T01:29:49.519Z,7.00
2022-10-11T01:32:27.334Z,7.50
2022-10-11T01:35:04.875Z,8.07
2022-10-11T01:37:38.899Z,7.50
2022-10-11T01:40:12.533Z,14.37
2022-10-11T01:42:44.539Z,7.70
2022-10-11T01:45:19.061Z,7.40
2022-10-11T01:48:04.157Z,8.00
2022-10-11T01:50:39.704Z,8.77
2022-10-11T01:53:25.394Z,10.70
2022-10-11T01:56:00.094Z,6.00
2022-10-11T01:58:39.355Z,11.03
2022-10-11T02:01:18.515Z,6.60
2022-10-11T02:03:58.123Z,8.57
2022-10-11T02:06:35.825Z,7.80
2022-10-11T02:09:13.907Z,12.77
2022-10-11T02:11:44.713Z,13.87
2022-10-11T02:14:19.380Z,9.60
2022-10-11T02:16:54.049Z,5.30
2022-10-11T02:19:34.667Z,7.17
2022-10-11T02:22:08.955Z,6.27
2022-10-11T02:24:42.886Z,8.07
2022-10-11T02:27:14.304Z,13.53
2022-10-11T02:29:48.160Z,9.43
2022-10-11T02:32:20.204Z,9.83
2022-10-11T02:34:56.679Z,11.33
2022-10-11T02:37:33.882Z,6.83
2022-10-11T02:40:13.559Z,10.17
2022-10-11T02:42:47.961Z,10.50
2022-10-11T02:45:22.089Z,8.10
2022-10-11T02:47:52.598Z,8.17
2022-10-11T02:50:25.735Z,7.63
2022-10-11T02:52:55.530Z,11.40
2022-10-11T02:55:25.412Z,7.47
2022-10-11T02:57:55.580Z,10.87
2022-10-11T03:00:25.732Z,16.47
2022-10-11T03:02:55.456Z,11.47
2022-10-11T03:05:27.884Z,10.17
2022-10-11T03:07:57.726Z,7.93
2022-10-11T03:10:28.430Z,7.47
2022-10-11T03:12:58.217Z,12.67
2022-10-11T03:15:28.110Z,17.57
2022-10-11T03:17:58.127Z,13.90
2022-10-11T03:20:30.656Z,16.60
2022-10-11T03:23:00.436Z,9.13
2022-10-11T03:25:33.512Z,15.87
2022-10-11T03:28:03.265Z,11.77
2022-10-11T03:30:33.301Z,11.97
2022-10-11T03:33:03.450Z,12.40
2022-10-11T03:35:36.024Z,15.40
2022-10-11T03:38:06.393Z,12.50
2022-10-11T03:40:37.504Z,15.07
2022-10-11T03:43:07.322Z,10.90
2022-10-11T03:45:37.172Z,10.13
2022-10-11T03:48:07.410Z,11.53
2022-10-11T03:50:40.131Z,15.60
2022-10-11T03:53:12.345Z,12.37
2022-10-11T03:55:42.976Z,10.93
2022-10-11T03:58:12.749Z,12.30
2022-10-11T04:00:42.633Z,16.63
2022-10-11T04:03:12.406Z,10.30
2022-10-11T04:05:44.860Z,11.20
2022-10-11T04:08:14.634Z,10.87
2022-10-11T04:10:44.716Z,12.50
2022-10-11T04:13:15.099Z,7.10
2022-10-11T04:15:44.981Z,8.93
2022-10-11T04:18:14.837Z,12.77
2022-10-11T04:20:47.476Z,14.30
2022-10-11T04:23:17.258Z,12.90
2022-10-11T04:25:48.387Z,6.77
2022-10-11T04:28:18.277Z,20.47
2022-10-11T04:30:48.115Z,14.63
2022-10-11T04:33:17.941Z,15.90
2022-10-11T04:35:50.367Z,12.47
2022-10-11T04:38:20.174Z,21.57
2022-10-11T04:40:49.963Z,18.50
2022-10-11T04:43:20.700Z,12.50
2022-10-11T04:45:55.252Z,6.77
2022-10-11T04:48:25.334Z,12.20
2022-10-11T04:50:58.025Z,8.83
2022-10-11T04:53:27.991Z,12.63
2022-10-11T04:56:02.136Z,33.10
2022-10-11T04:58:33.150Z,65.53
2022-10-11T05:01:03.368Z,30.03
2022-10-11T05:03:33.329Z,17.87
2022-10-11T05:06:07.490Z,14.00
2022-10-11T05:08:37.436Z,13.67
2022-10-11T05:11:09.228Z,11.00
2022-10-11T05:13:39.469Z,15.03
2022-10-11T05:16:11.365Z,10.57
2022-10-11T05:18:42.179Z,14.27
2022-10-11T05:21:19.774Z,16.07
2022-10-11T05:23:51.582Z,13.60
2022-10-11T05:26:22.353Z,14.03
2022-10-11T05:28:52.493Z,14.03
2022-10-11T05:31:22.525Z,18.07
2022-10-11T05:33:52.285Z,11.10
2022-10-11T05:36:24.846Z,36.97
2022-10-11T05:38:54.595Z,57.20
2022-10-11T05:41:24.680Z,20.60
2022-10-11T05:43:54.431Z,15.00
2022-10-11T05:46:26.908Z,16.23
2022-10-11T05:48:56.723Z,14.23
2022-10-11T05:51:29.195Z,12.87
2022-10-11T05:53:59.003Z,10.30
2022-10-11T05:56:29.556Z,13.27
2022-10-11T05:59:02.363Z,10.07
2022-10-11T06:01:32.739Z,11.80
2022-10-11T06:04:02.646Z,12.40
2022-10-11T06:06:35.133Z,9.90
2022-10-11T06:09:07.436Z,13.53
2022-10-11T06:11:37.569Z,15.20
2022-10-11T06:14:08.295Z,13.50
2022-10-11T06:16:38.242Z,12.33
2022-10-11T06:19:08.132Z,87.33
2022-10-11T06:21:40.542Z,27.57
2022-10-11T06:24:10.785Z,10.03
2022-10-11T06:26:40.947Z,14.30
2022-10-11T06:29:11.131Z,17.23
2022-10-11T06:31:40.934Z,8.87
2022-10-11T06:34:10.672Z,10.20
2022-10-11T06:36:43.083Z,17.73
2022-10-11T06:39:12.852Z,11.40
2022-10-11T06:41:42.691Z,8.93
2022-10-11T06:44:14.452Z,6.77
2022-10-11T06:46:44.418Z,8.53
2022-10-11T06:49:15.533Z,8.10
2022-10-11T06:51:49.577Z,10.50
2022-10-11T06:54:19.334Z,13.80
2022-10-11T06:56:49.095Z,12.20
2022-10-11T06:59:18.928Z,12.57
2022-10-11T07:01:48.851Z,11.43
2022-10-11T07:04:18.694Z,15.73
2022-10-11T07:06:53.387Z,8.60
2022-10-11T07:09:23.237Z,13.80
2022-10-11T07:11:52.991Z,10.77
2022-10-11T07:14:22.772Z,12.20
2022-10-11T07:16:52.510Z,15.87
2022-10-11T07:19:22.432Z,12.93
2022-10-11T07:21:54.876Z,10.27
2022-10-11T07:24:24.800Z,12.30
2022-10-11T07:26:54.608Z,10.97
2022-10-11T07:29:24.519Z,13.63
2022-10-11T07:31:54.372Z,12.17
2022-10-11T07:34:24.363Z,8.27
2022-10-11T07:36:56.716Z,10.40
2022-10-11T07:39:26.529Z,11.23
2022-10-11T07:41:56.257Z,8.90
2022-10-11T07:44:25.985Z,13.27
2022-10-11T07:46:55.762Z,10.80
2022-10-11T07:49:25.575Z,10.33
2022-10-11T07:51:57.866Z,11.40
2022-10-11T07:54:27.633Z,12.80
2022-10-11T07:56:57.451Z,8.90
2022-10-11T07:59:27.248Z,8.83
2022-10-11T08:01:57.071Z,7.43
2022-10-11T08:04:26.928Z,9.13
2022-10-11T08:06:59.269Z,10.67
2022-10-11T08:09:29.525Z,12.90
2022-10-11T08:11:59.505Z,9.63
2022-10-11T08:14:29.213Z,18.13
2022-10-11T08:16:58.973Z,8.73
2022-10-11T08:19:28.751Z,9.47
2022-10-11T08:22:01.098Z,10.20
2022-10-11T08:24:33.527Z,10.30
2022-10-11T08:27:17.617Z,9.85
2022-10-11T08:29:57.689Z,11.55
2022-10-11T08:32:40.465Z,11.13
2022-10-11T08:35:20.601Z,12.75
2022-10-11T08:38:03.309Z,13.97
2022-10-11T08:40:49.527Z,9.82
2022-10-11T08:43:38.844Z,8.18
2022-10-11T08:46:24.470Z,8.23
2022-10-11T08:49:05.262Z,9.05
2022-10-11T08:51:48.941Z,13.40
2022-10-11T08:54:42.843Z,7.63
2022-10-11T08:57:25.124Z,10.73
2022-10-11T09:00:00.428Z,8.30
2022-10-11T09:03:06.946Z,9.60
2022-10-11T09:05:37.969Z,9.57
2022-10-11T09:08:24.166Z,6.82
2022-10-11T09:11:14.019Z,9.75
2022-10-11T09:14:26.628Z,9.77
2022-10-11T09:17:14.624Z,6.72
2022-10-11T09:20:10.719Z,5.85
2022-10-11T09:22:59.238Z,8.27
2022-10-11T09:25:50.352Z,6.93
2022-10-11T09:28:31.087Z,5.40
2022-10-11T09:31:01.712Z,7.28
2022-10-11T09:33:36.360Z,8.77
2022-10-11T09:36:19.284Z,4.75
2022-10-11T09:38:54.539Z,10.77
2022-10-11T09:41:32.103Z,8.20
2022-10-11T09:44:05.123Z,6.05
2022-10-11T09:46:39.303Z,10.70
2022-10-11T09:49:14.116Z,6.25
2022-10-11T09:51:47.664Z,10.40
2022-10-11T09:54:17.512Z,7.78
2022-10-11T09:56:48.924Z,7.75
2022-10-11T09:59:29.564Z,8.82
2022-10-11T10:02:24.683Z,8.07
2022-10-11T10:05:06.373Z,9.05
2022-10-11T10:07:38.071Z,4.05
2022-10-11T10:10:32.305Z,7.45
2022-10-11T10:13:04.649Z,11.05
2022-10-11T10:15:38.621Z,6.80
2022-10-11T10:18:10.594Z,8.52
2022-10-11T10:20:41.064Z,8.45
2022-10-11T10:23:13.798Z,9.25
2022-10-11T10:25:43.875Z,7.45
2022-10-11T10:28:24.137Z,8.90
2022-10-11T10:30:59.969Z,6.80
2022-10-11T10:33:34.108Z,3.13
2022-10-11T10:36:10.124Z,5.30
2022-10-11T10:38:48.647Z,3.90
2022-10-11T10:41:22.509Z,7.60
2022-10-11T10:43:55.560Z,5.90
2022-10-11T10:46:46.064Z,7.05
2022-10-11T10:49:48.388Z,5.68
2022-10-11T10:52:35.844Z,5.05
2022-10-11T10:55:16.883Z,9.20
2022-10-11T10:57:59.736Z,6.90
2022-10-11T11:00:36.905Z,8.40
2022-10-11T11:03:12.736Z,10.13
2022-10-11T11:05:50.527Z,8.55
2022-10-11T11:08:34.690Z,9.38
2022-10-11T11:11:11.151Z,7.63
2022-10-11T11:13:47.872Z,5.63
2022-10-11T11:16:26.449Z,8.00
2022-10-11T11:19:09.129Z,5.07
2022-10-11T11:21:50.390Z,5.57
2022-10-11T11:24:32.130Z,4.93
2022-10-11T11:27:09.177Z,6.57
2022-10-11T11:29:55.322Z,4.75
2022-10-11T11:32:37.146Z,4.95
2022-10-11T11:35:14.974Z,8.02
2022-10-11T11:37:47.719Z,9.98
2022-10-11T11:40:20.685Z,5.93
2022-10-11T11:42:53.754Z,8.27
2022-10-11T11:45:27.640Z,5.43
2022-10-11T11:48:04.805Z,4.47
2022-10-11T11:50:45.960Z,5.28
2022-10-11T11:53:19.099Z,7.82
2022-10-11T11:55:57.160Z,4.00
2022-10-11T11:58:38.139Z,4.38
2022-10-11T12:01:17.943Z,10.40
2022-10-11T12:03:51.059Z,10.15
2022-10-11T12:07:04.042Z,10.00
2022-10-11T12:09:33.244Z,5.60
2022-10-11T12:12:06.888Z,7.15
2022-10-11T12:14:41.962Z,5.47
2022-10-11T12:17:19.187Z,12.75
2022-10-11T12:20:09.512Z,5.97
2022-10-11T12:22:55.264Z,5.13
2022-10-11T12:26:18.945Z,7.25
2022-10-11T12:29:18.578Z,4.85
2022-10-11T12:31:51.938Z,3.80
2022-10-11T12:34:37.882Z,6.05
2022-10-11T12:37:37.837Z,4.53
2022-10-11T12:40:47.041Z,3.97
2022-10-11T12:43:55.649Z,4.68
2022-10-11T12:46:49.307Z,6.38
2022-10-11T12:49:29.645Z,3.97
2022-10-11T12:52:03.573Z,7.45
2022-10-11T12:55:06.087Z,8.57
2022-10-11T12:58:10.059Z,6.03
2022-10-11T13:00:46.675Z,6.30
2022-10-11T13:03:32.828Z,5.32
2022-10-11T13:06:03.533Z,4.53
2022-10-11T13:08:40.373Z,6.80
2022-10-11T13:11:20.354Z,8.75
2022-10-11T13:13:58.250Z,5.60
2022-10-11T13:16:30.590Z,6.68
2022-10-11T13:19:02.718Z,5.05
2022-10-11T13:21:36.258Z,6.43
2022-10-11T13:24:14.583Z,9.55
2022-10-11T13:26:45.822Z,8.40
2022-10-11T13:29:23.947Z,9.70
2022-10-11T13:31:53.859Z,7.18
2022-10-11T13:34:24.545Z,7.28
2022-10-11T13:36:58.543Z,9.85
2022-10-11T13:39:31.870Z,9.35
2022-10-11T13:42:03.718Z,6.78
2022-10-11T13:44:38.671Z,9.90
2022-10-11T13:47:09.046Z,11.23
2022-10-11T13:49:41.303Z,8.75
2022-10-11T13:52:23.818Z,9.68
2022-10-11T13:55:01.263Z,9.48
2022-10-11T13:57:38.673Z,10.43
2022-10-11T14:00:30.677Z,4.63
2022-10-11T14:03:05.198Z,6.15
2022-10-11T14:05:38.540Z,11.27
2022-10-11T14:08:10.707Z,8.82
2022-10-11T14:10:40.553Z,55.85
2022-10-11T14:13:25.757Z,29.63
2022-10-11T14:16:10.250Z,8.63
2022-10-11T14:18:45.524Z,5.70
2022-10-11T14:21:37.918Z,5.28
2022-10-11T14:24:10.689Z,5.82
2022-10-11T14:26:42.479Z,8.55
2022-10-11T14:29:17.503Z,12.70
2022-10-11T14:31:50.119Z,3.90
2022-10-11T14:34:22.995Z,3.90
2022-10-11T14:36:54.092Z,6.25
2022-10-11T14:39:26.174Z,6.50
2022-10-11T14:41:56.656Z,4.90
2022-10-11T14:44:26.529Z,6.70
2022-10-11T14:46:59.101Z,5.47
2022-10-11T14:49:32.344Z,6.05
2022-10-11T14:52:02.332Z,8.70
2022-10-11T14:54:33.281Z,26.92
2022-10-11T14:57:08.495Z,11.18
2022-10-11T14:59:39.760Z,6.60
2022-10-11T15:02:14.408Z,5.53
2022-10-11T15:04:44.262Z,6.70
2022-10-11T15:07:15.543Z,5.40
2022-10-11T15:09:45.314Z,4.93
2022-10-11T15:12:15.117Z,4.97
2022-10-11T15:14:44.922Z,4.65
2022-10-11T15:17:17.480Z,7.45
2022-10-11T15:19:47.599Z,7.57
2022-10-11T15:22:17.487Z,8.10
2022-10-11T15:24:51.520Z,6.18
2022-10-11T15:27:25.457Z,5.30
2022-10-11T15:29:55.224Z,5.15
2022-10-11T15:32:27.783Z,4.78
2022-10-11T15:34:57.515Z,5.63
2022-10-11T15:37:27.479Z,6.70
2022-10-11T15:39:57.280Z,3.80
2022-10-11T15:42:27.102Z,6.35
2022-10-11T15:44:56.938Z,6.75
2022-10-11T15:47:29.361Z,30.88
2022-10-11T15:49:59.225Z,85.00
2022-10-11T15:52:29.169Z,20.92
2022-10-11T15:54:58.977Z,11.10
2022-10-11T15:57:28.795Z,6.57
2022-10-11T15:59:59.229Z,9.25
2022-10-11T16:02:31.928Z,10.68
2022-10-11T16:05:01.918Z,8.45
2022-10-11T16:07:31.981Z,5.93
2022-10-11T16:10:01.748Z,9.75
2022-10-11T16:12:31.514Z,8.73
2022-10-11T16:15:01.444Z,8.82
2022-10-11T16:17:36.865Z,7.03
2022-10-11T16:20:08.132Z,10.38
2022-10-11T16:22:38.667Z,14.50
2022-10-11T16:25:08.609Z,21.25
2022-10-11T16:27:38.520Z,20.90
2022-10-11T16:30:13.958Z,30.45
2022-10-11T16:32:46.900Z,14.98
2022-10-11T16:35:19.122Z,16.25
2022-10-11T16:37:52.014Z,14.93
2022-10-11T16:40:23.638Z,13.85
2022-10-11T16:42:53.631Z,17.15
2022-10-11T16:45:23.520Z,14.18
2022-10-11T16:47:55.995Z,12.48
2022-10-11T16:50:26.306Z,11.52
2022-10-11T16:53:03.705Z,13.00
2022-10-11T16:55:33.471Z,8.17
2022-10-11T16:58:03.311Z,10.33
2022-10-11T17:00:33.134Z,65.03
2022-10-11T17:03:05.543Z,48.23
2022-10-11T17:05:35.371Z,11.77
2022-10-11T17:08:05.393Z,13.77
2022-10-11T17:10:44.508Z,16.57
2022-10-11T17:13:14.349Z,15.07
2022-10-11T17:15:44.231Z,12.53
2022-10-11T17:18:16.668Z,10.50
2022-10-11T17:20:46.903Z,12.77
2022-10-11T17:23:16.762Z,16.63
2022-10-11T17:25:47.921Z,12.32
2022-10-11T17:28:17.827Z,15.67
2022-10-11T17:30:55.926Z,9.07
2022-10-11T17:33:31.591Z,11.07
2022-10-11T17:36:04.877Z,14.63
2022-10-11T17:38:35.044Z,13.40
2022-10-11T17:41:09.476Z,18.13
2022-10-11T17:43:39.434Z,15.43
2022-10-11T17:46:10.125Z,12.03
2022-10-11T17:48:44.686Z,14.47
2022-10-11T17:51:22.812Z,10.00
2022-10-11T17:53:53.584Z,11.63
2022-10-11T17:56:31.318Z,13.90
2022-10-11T17:59:03.603Z,12.20
2022-10-11T18:01:33.522Z,11.77
2022-10-11T18:04:10.394Z,15.13
2022-10-11T18:06:43.584Z,11.00
2022-10-11T18:09:15.266Z,14.90
2022-10-11T18:11:45.738Z,15.77
2022-10-11T18:14:15.964Z,15.23
2022-10-11T18:17:01.336Z,11.03
2022-10-11T18:19:33.742Z,16.20
2022-10-11T18:22:07.014Z,15.80
2022-10-11T18:24:37.515Z,21.33
2022-10-11T18:27:07.483Z,19.80
2022-10-11T18:29:37.363Z,18.17
2022-10-11T18:32:07.249Z,13.80
2022-10-11T18:34:39.752Z,19.77
2022-10-11T18:37:09.490Z,19.93
2022-10-11T18:39:39.287Z,18.30
2022-10-11T18:42:09.797Z,16.43
2022-10-11T18:44:39.609Z,19.83
2022-10-11T18:47:09.431Z,20.13
2022-10-11T18:49:41.920Z,15.60
2022-10-11T18:52:12.508Z,19.03
2022-10-11T18:54:42.570Z,16.60
2022-10-11T18:57:12.537Z,14.07
2022-10-11T18:59:42.443Z,20.83
2022-10-11T19:02:13.789Z,17.60
2022-10-11T19:04:52.537Z,18.87
2022-10-11T19:07:26.783Z,21.33
2022-10-11T19:09:56.719Z,16.63
2022-10-11T19:12:26.587Z,17.67
2022-10-11T19:14:57.344Z,19.27
2022-10-11T19:17:27.376Z,16.57
2022-10-11T19:19:59.817Z,18.23
2022-10-11T19:22:29.615Z,17.20
2022-10-11T19:24:59.409Z,160.33
2022-10-11T19:27:30.630Z,40.77
2022-10-11T19:30:00.530Z,21.70
2022-10-11T19:32:30.406Z,16.97
2022-10-11T19:35:02.787Z,18.67
2022-10-11T19:37:33.033Z,19.33
2022-10-11T19:40:05.933Z,18.90
2022-10-11T19:42:35.899Z,28.07
2022-10-11T19:45:08.306Z,23.70
2022-10-11T19:47:40.188Z,27.73
2022-10-11T19:50:13.053Z,34.30
2022-10-11T19:52:48.411Z,36.50
2022-10-11T19:55:18.363Z,34.43
2022-10-11T19:57:48.116Z,33.80
2022-10-11T20:00:19.051Z,29.43
2022-10-11T20:02:48.915Z,38.97
2022-10-11T20:05:21.577Z,34.73
2022-10-11T20:07:51.687Z,32.00
2022-10-11T20:10:25.188Z,31.70
2022-10-11T20:12:54.976Z,37.40
2022-10-11T20:15:24.712Z,33.03
2022-10-11T20:17:54.499Z,28.87
2022-10-11T20:20:27.202Z,34.03
2022-10-11T20:22:57.506Z,35.17
2022-10-11T20:25:27.318Z,35.00
2022-10-11T20:27:57.211Z,33.63
2022-10-11T20:30:27.169Z,37.70
2022-10-11T20:33:07.231Z,32.87
2022-10-11T20:35:39.955Z,37.73
2022-10-11T20:38:09.722Z,32.23
2022-10-11T20:40:42.866Z,34.40
2022-10-11T20:43:14.149Z,32.80
2022-10-11T20:45:44.506Z,34.20
2022-10-11T20:48:14.539Z,40.90
2022-10-11T20:50:49.468Z,39.70
2022-10-11T20:53:19.219Z,38.07
2022-10-11T20:55:49.181Z,30.33
2022-10-11T20:58:19.711Z,38.37
2022-10-11T21:00:50.199Z,31.17
2022-10-11T21:03:20.603Z,33.90
2022-10-11T21:06:00.730Z,32.53
2022-10-11T21:08:30.469Z,32.43
2022-10-11T21:11:00.321Z,34.37
2022-10-11T21:13:34.020Z,35.23
2022-10-11T21:16:08.063Z,36.10
2022-10-11T21:18:37.795Z,36.27
2022-10-11T21:21:12.343Z,38.67
2022-10-11T21:23:42.498Z,37.17
2022-10-11T21:26:14.833Z,35.67
2022-10-11T21:28:44.762Z,33.83
2022-10-11T21:31:18.259Z,34.13
2022-10-11T21:33:48.547Z,36.33
2022-10-11T21:36:25.046Z,37.10
2022-10-11T21:38:56.031Z,34.40
2022-10-11T21:41:29.137Z,31.37
2022-10-11T21:43:59.246Z,34.70
2022-10-11T21:49:21.943Z,29.77
2022-10-11T21:51:54.587Z,32.03
2022-10-11T21:54:24.396Z,32.10
2022-10-11T21:56:54.415Z,31.77
2022-10-11T21:59:24.283Z,34.20
2022-10-11T22:01:58.075Z,32.30
2022-10-11T22:04:30.606Z,30.43
2022-10-11T22:07:03.130Z,30.97
2022-10-11T22:09:35.034Z,34.90
2022-10-11T22:12:05.016Z,30.63
2022-10-11T22:14:37.600Z,34.50
2022-10-11T22:17:07.355Z,36.10
2022-10-11T22:19:37.215Z,34.33
2022-10-11T22:22:09.571Z,36.00
2022-10-11T22:24:39.364Z,33.83
2022-10-11T22:27:09.212Z,34.87
2022-10-11T22:29:39.158Z,32.83
2022-10-11T22:32:11.597Z,33.47
2022-10-11T22:34:41.468Z,36.83
2022-10-11T22:37:13.986Z,38.50
2022-10-11T22:39:43.802Z,39.60
2022-10-11T22:42:13.687Z,35.53
2022-10-11T22:44:43.461Z,35.43
2022-10-11T22:47:13.237Z,36.20
2022-10-11T22:49:43.052Z,35.70
2022-10-11T22:52:18.122Z,39.40
2022-10-11T22:54:48.142Z,36.30
2022-10-11T22:57:18.277Z,33.20
2022-10-11T22:59:48.376Z,36.37
2022-10-11T23:02:18.282Z,34.47
2022-10-11T23:04:48.276Z,37.67
2022-10-11T23:07:22.884Z,34.27
2022-10-11T23:09:52.724Z,33.77
2022-10-11T23:12:22.606Z,34.90
2022-10-11T23:14:52.405Z,37.67
2022-10-11T23:17:22.415Z,39.23
2022-10-11T23:19:52.745Z,32.77
2022-10-11T23:22:25.211Z,32.23
2022-10-11T23:24:55.687Z,29.00
2022-10-11T23:27:25.510Z,30.60
2022-10-11T23:29:56.022Z,37.97
2022-10-11T23:32:26.048Z,30.80
2022-10-11T23:34:56.065Z,34.83
2022-10-11T23:37:30.941Z,31.73
2022-10-11T23:40:01.537Z,31.90
2022-10-11T23:42:31.392Z,30.80
2022-10-11T23:45:01.407Z,28.60
2022-10-11T23:47:31.298Z,31.17
2022-10-11T23:50:01.095Z,32.70
2022-10-11T23:52:33.487Z,29.20
2022-10-11T23:55:05.187Z,31.87
2022-10-11T23:57:35.257Z,32.53
